sensor_id;sensor_type;location;lat;lon;timestamp;pressure;altitude;pressure_sealevel;temperature;humidity
4326;BME280;58429;49.826;10.880;2023-06-10T00:00:33;98463;;;16.39;63.3
4326;BME280;58429;49.826;10.880;2023-06-10T00:01:33;98454;;;16.39;63.31
4326;BME280;58429;49.826;10.880;2023-06-10T00:02:33;98463;;;16.36;63.04
4326;BME280;58429;49.826;10.880;2023-06-10T00:03:33;98457;;;16.36;63.04
4326;BME280;58429;49.826;10.880;2023-06-10T00:04:33;98459;;;16.33;63.08
4326;BME280;58429;49.826;10.880;2023-06-10T00:05:33;98458;;;16.3;63.11
4326;BME280;58429;49.826;10.880;2023-06-10T00:06:33;98451;;;16.28;63.37
4326;BME280;58429;49.826;10.880;2023-06-10T00:07:33;98447;;;16.24;63.38
4326;BME280;58429;49.826;10.880;2023-06-10T00:08:33;98452;;;16.14;63.56
4326;BME280;58429;49.826;10.880;2023-06-10T00:09:33;98447;;;16.13;63.49
4326;BME280;58429;49.826;10.880;2023-06-10T00:10:33;98449;;;16.13;63.57
4326;BME280;58429;49.826;10.880;2023-06-10T00:11:33;98452;;;16.13;63.49
4326;BME280;58429;49.826;10.880;2023-06-10T00:12:33;98460;;;16.14;63.52
4326;BME280;58429;49.826;10.880;2023-06-10T00:13:33;98452;;;16.14;63.71
4326;BME280;58429;49.826;10.880;2023-06-10T00:14:33;98444;;;16.16;63.65
4326;BME280;58429;49.826;10.880;2023-06-10T00:15:33;98450;;;16.12;63.83
4326;BME280;58429;49.826;10.880;2023-06-10T00:16:33;98448;;;16.09;63.92
4326;BME280;58429;49.826;10.880;2023-06-10T00:17:33;98445;;;16.06;64.44
4326;BME280;58429;49.826;10.880;2023-06-10T00:18:33;98443;;;16.04;64.57
4326;BME280;58429;49.826;10.880;2023-06-10T00:19:33;98447;;;16.06;64.78
4326;BME280;58429;49.826;10.880;2023-06-10T00:20:33;98447;;;16.03;64.81
4326;BME280;58429;49.826;10.880;2023-06-10T00:21:33;98448;;;16.02;65.5
4326;BME280;58429;49.826;10.880;2023-06-10T00:22:33;98451;;;15.98;65.63
4326;BME280;58429;49.826;10.880;2023-06-10T00:23:33;98448;;;15.91;65.67
4326;BME280;58429;49.826;10.880;2023-06-10T00:24:33;98449;;;15.88;65.62
4326;BME280;58429;49.826;10.880;2023-06-10T00:25:33;98450;;;15.91;65.68
4326;BME280;58429;49.826;10.880;2023-06-10T00:26:33;98450;;;15.87;66.21
4326;BME280;58429;49.826;10.880;2023-06-10T00:27:33;98451;;;15.87;65.77
4326;BME280;58429;49.826;10.880;2023-06-10T00:28:33;98446;;;15.85;66.15
4326;BME280;58429;49.826;10.880;2023-06-10T00:29:33;98453;;;15.84;66
4326;BME280;58429;49.826;10.880;2023-06-10T00:30:33;98450;;;15.81;65.61
4326;BME280;58429;49.826;10.880;2023-06-10T00:31:33;98441;;;15.78;65.2
4326;BME280;58429;49.826;10.880;2023-06-10T00:32:33;98449;;;15.76;65.08
4326;BME280;58429;49.826;10.880;2023-06-10T00:33:33;98449;;;15.72;65.28
4326;BME280;58429;49.826;10.880;2023-06-10T00:34:33;98446;;;15.68;65.32
4326;BME280;58429;49.826;10.880;2023-06-10T00:35:33;98443;;;15.68;65.5
4326;BME280;58429;49.826;10.880;2023-06-10T00:36:33;98448;;;15.59;65.76
4326;BME280;58429;49.826;10.880;2023-06-10T00:37:33;98454;;;15.6;65.74
4326;BME280;58429;49.826;10.880;2023-06-10T00:38:34;98454;;;15.58;66.06
4326;BME280;58429;49.826;10.880;2023-06-10T00:39:33;98457;;;15.51;66.16
4326;BME280;58429;49.826;10.880;2023-06-10T00:40:33;98456;;;15.53;66.19
4326;BME280;58429;49.826;10.880;2023-06-10T00:41:33;98455;;;15.57;66.24
4326;BME280;58429;49.826;10.880;2023-06-10T00:42:33;98445;;;15.55;66.53
4326;BME280;58429;49.826;10.880;2023-06-10T00:43:33;98442;;;15.56;66.38
4326;BME280;58429;49.826;10.880;2023-06-10T00:44:33;98451;;;15.48;66.75
4326;BME280;58429;49.826;10.880;2023-06-10T00:45:33;98451;;;15.44;66.45
4326;BME280;58429;49.826;10.880;2023-06-10T00:46:33;98456;;;15.46;66.83
4326;BME280;58429;49.826;10.880;2023-06-10T00:47:33;98453;;;15.43;67.22
4326;BME280;58429;49.826;10.880;2023-06-10T00:48:33;98451;;;15.44;67.33
4326;BME280;58429;49.826;10.880;2023-06-10T00:49:33;98455;;;15.41;67.5
4326;BME280;58429;49.826;10.880;2023-06-10T00:50:33;98452;;;15.39;67.42
4326;BME280;58429;49.826;10.880;2023-06-10T00:51:33;98456;;;15.42;67.38
4326;BME280;58429;49.826;10.880;2023-06-10T00:52:33;98443;;;15.43;67.41
4326;BME280;58429;49.826;10.880;2023-06-10T00:53:33;98451;;;15.4;67.57
4326;BME280;58429;49.826;10.880;2023-06-10T00:54:33;98448;;;15.38;67.51
4326;BME280;58429;49.826;10.880;2023-06-10T00:55:33;98450;;;15.41;66.99
4326;BME280;58429;49.826;10.880;2023-06-10T00:56:33;98452;;;15.38;66.97
4326;BME280;58429;49.826;10.880;2023-06-10T00:57:33;98445;;;15.37;66.63
4326;BME280;58429;49.826;10.880;2023-06-10T00:58:33;98457;;;15.36;66.78
4326;BME280;58429;49.826;10.880;2023-06-10T00:59:33;98452;;;15.33;66.86
4326;BME280;58429;49.826;10.880;2023-06-10T01:00:33;98451;;;15.33;66.74
4326;BME280;58429;49.826;10.880;2023-06-10T01:01:33;98453;;;15.3;66.55
4326;BME280;58429;49.826;10.880;2023-06-10T01:02:33;98449;;;15.28;66.18
4326;BME280;58429;49.826;10.880;2023-06-10T01:03:33;98451;;;15.28;66.14
4326;BME280;58429;49.826;10.880;2023-06-10T01:04:33;98449;;;15.22;66.09
4326;BME280;58429;49.826;10.880;2023-06-10T01:05:33;98451;;;15.26;66.19
4326;BME280;58429;49.826;10.880;2023-06-10T01:06:36;98449;;;15.23;66.67
4326;BME280;58429;49.826;10.880;2023-06-10T01:07:34;98451;;;15.18;66.92
4326;BME280;58429;49.826;10.880;2023-06-10T01:08:35;98449;;;15.14;67.14
4326;BME280;58429;49.826;10.880;2023-06-10T01:09:37;98444;;;15.15;67.1
4326;BME280;58429;49.826;10.880;2023-06-10T01:10:34;98452;;;15.15;67.34
4326;BME280;58429;49.826;10.880;2023-06-10T01:11:34;98455;;;15.11;67.69
4326;BME280;58429;49.826;10.880;2023-06-10T01:12:34;98447;;;15.08;68.27
4326;BME280;58429;49.826;10.880;2023-06-10T01:13:33;98442;;;15.05;68.29
4326;BME280;58429;49.826;10.880;2023-06-10T01:14:33;98457;;;15.06;68.09
4326;BME280;58429;49.826;10.880;2023-06-10T01:15:34;98450;;;15.02;68.36
4326;BME280;58429;49.826;10.880;2023-06-10T01:16:33;98451;;;15;69.51
4326;BME280;58429;49.826;10.880;2023-06-10T01:17:33;98449;;;14.93;69.11
4326;BME280;58429;49.826;10.880;2023-06-10T01:18:33;98452;;;14.9;69.54
4326;BME280;58429;49.826;10.880;2023-06-10T01:19:33;98447;;;14.86;70.31
4326;BME280;58429;49.826;10.880;2023-06-10T01:20:33;98452;;;14.83;70.11
4326;BME280;58429;49.826;10.880;2023-06-10T01:21:33;98449;;;14.81;69.94
4326;BME280;58429;49.826;10.880;2023-06-10T01:22:33;98448;;;14.8;69.7
4326;BME280;58429;49.826;10.880;2023-06-10T01:23:33;98442;;;14.78;69.71
4326;BME280;58429;49.826;10.880;2023-06-10T01:24:33;98443;;;14.77;70.1
4326;BME280;58429;49.826;10.880;2023-06-10T01:25:35;98443;;;14.74;69.86
4326;BME280;58429;49.826;10.880;2023-06-10T01:26:33;98453;;;14.76;70.09
4326;BME280;58429;49.826;10.880;2023-06-10T01:27:33;98448;;;14.75;69.8
4326;BME280;58429;49.826;10.880;2023-06-10T01:28:42;98445;;;14.76;69.34
4326;BME280;58429;49.826;10.880;2023-06-10T01:29:36;98452;;;14.79;69.09
4326;BME280;58429;49.826;10.880;2023-06-10T01:30:37;98450;;;14.79;68.7
4326;BME280;58429;49.826;10.880;2023-06-10T01:31:36;98451;;;14.8;68.67
4326;BME280;58429;49.826;10.880;2023-06-10T01:32:34;98446;;;14.72;68.84
4326;BME280;58429;49.826;10.880;2023-06-10T01:33:35;98449;;;14.7;68.84
4326;BME280;58429;49.826;10.880;2023-06-10T01:34:33;98448;;;14.68;68.78
4326;BME280;58429;49.826;10.880;2023-06-10T01:35:33;98453;;;14.72;68.93
4326;BME280;58429;49.826;10.880;2023-06-10T01:36:33;98449;;;14.66;69.18
4326;BME280;58429;49.826;10.880;2023-06-10T01:37:34;98449;;;14.61;69.28
4326;BME280;58429;49.826;10.880;2023-06-10T01:38:35;98454;;;14.6;69.28
4326;BME280;58429;49.826;10.880;2023-06-10T01:39:33;98453;;;14.58;69.46
4326;BME280;58429;49.826;10.880;2023-06-10T01:40:33;98451;;;14.61;69.15
4326;BME280;58429;49.826;10.880;2023-06-10T01:41:33;98453;;;14.56;69.33
4326;BME280;58429;49.826;10.880;2023-06-10T01:42:33;98456;;;14.56;69.17
4326;BME280;58429;49.826;10.880;2023-06-10T01:43:33;98457;;;14.56;69.25
4326;BME280;58429;49.826;10.880;2023-06-10T01:44:33;98465;;;14.56;69.64
4326;BME280;58429;49.826;10.880;2023-06-10T01:45:33;98461;;;14.55;69.85
4326;BME280;58429;49.826;10.880;2023-06-10T01:46:33;98461;;;14.52;70
4326;BME280;58429;49.826;10.880;2023-06-10T01:47:33;98462;;;14.52;69.91
4326;BME280;58429;49.826;10.880;2023-06-10T01:48:33;98461;;;14.55;70.15
4326;BME280;58429;49.826;10.880;2023-06-10T01:49:33;98460;;;14.5;70.82
4326;BME280;58429;49.826;10.880;2023-06-10T01:50:33;98461;;;14.48;70.44
4326;BME280;58429;49.826;10.880;2023-06-10T01:51:33;98458;;;14.49;70.21
4326;BME280;58429;49.826;10.880;2023-06-10T01:52:33;98455;;;14.45;70.27
4326;BME280;58429;49.826;10.880;2023-06-10T01:53:33;98468;;;14.45;70.42
4326;BME280;58429;49.826;10.880;2023-06-10T01:54:33;98458;;;14.48;70.61
4326;BME280;58429;49.826;10.880;2023-06-10T01:55:33;98464;;;14.41;70.75
4326;BME280;58429;49.826;10.880;2023-06-10T01:56:33;98460;;;14.39;70.86
4326;BME280;58429;49.826;10.880;2023-06-10T01:57:33;98459;;;14.38;71.04
4326;BME280;58429;49.826;10.880;2023-06-10T01:58:33;98463;;;14.36;70.88
4326;BME280;58429;49.826;10.880;2023-06-10T01:59:33;98456;;;14.37;71.04
4326;BME280;58429;49.826;10.880;2023-06-10T02:00:33;98463;;;14.35;71.57
4326;BME280;58429;49.826;10.880;2023-06-10T02:01:33;98465;;;14.3;72.01
4326;BME280;58429;49.826;10.880;2023-06-10T02:02:33;98464;;;14.28;71.83
4326;BME280;58429;49.826;10.880;2023-06-10T02:03:33;98461;;;14.31;71.68
4326;BME280;58429;49.826;10.880;2023-06-10T02:04:33;98459;;;14.32;71.57
4326;BME280;58429;49.826;10.880;2023-06-10T02:05:33;98461;;;14.26;72.29
4326;BME280;58429;49.826;10.880;2023-06-10T02:06:33;98455;;;14.25;72.38
4326;BME280;58429;49.826;10.880;2023-06-10T02:07:33;98461;;;14.2;72.2
4326;BME280;58429;49.826;10.880;2023-06-10T02:08:33;98463;;;14.16;72.35
4326;BME280;58429;49.826;10.880;2023-06-10T02:09:34;98463;;;14.14;72.16
4326;BME280;58429;49.826;10.880;2023-06-10T02:10:33;98467;;;14.17;71.77
4326;BME280;58429;49.826;10.880;2023-06-10T02:11:33;98463;;;14.24;71.49
4326;BME280;58429;49.826;10.880;2023-06-10T02:12:33;98466;;;14.19;71.17
4326;BME280;58429;49.826;10.880;2023-06-10T02:13:33;98463;;;14.24;70.88
4326;BME280;58429;49.826;10.880;2023-06-10T02:14:33;98461;;;14.23;70.56
4326;BME280;58429;49.826;10.880;2023-06-10T02:15:33;98464;;;14.2;70.51
4326;BME280;58429;49.826;10.880;2023-06-10T02:16:33;98469;;;14.19;70.5
4326;BME280;58429;49.826;10.880;2023-06-10T02:17:33;98465;;;14.18;70.58
4326;BME280;58429;49.826;10.880;2023-06-10T02:18:33;98463;;;14.12;70.81
4326;BME280;58429;49.826;10.880;2023-06-10T02:19:33;98463;;;14.08;70.86
4326;BME280;58429;49.826;10.880;2023-06-10T02:20:34;98463;;;14.1;70.94
4326;BME280;58429;49.826;10.880;2023-06-10T02:21:33;98458;;;14.08;70.89
4326;BME280;58429;49.826;10.880;2023-06-10T02:22:33;98467;;;14.07;70.81
4326;BME280;58429;49.826;10.880;2023-06-10T02:23:33;98456;;;14.09;70.88
4326;BME280;58429;49.826;10.880;2023-06-10T02:24:35;98453;;;14.08;71.19
4326;BME280;58429;49.826;10.880;2023-06-10T02:25:34;98457;;;14.06;71.28
4326;BME280;58429;49.826;10.880;2023-06-10T02:26:34;98454;;;13.99;71.7
4326;BME280;58429;49.826;10.880;2023-06-10T02:27:34;98460;;;15.55;66.28
4326;BME280;58429;49.826;10.880;2023-06-10T02:28:34;98461;;;13.95;71.53
4326;BME280;58429;49.826;10.880;2023-06-10T02:29:33;98463;;;13.93;71.66
4326;BME280;58429;49.826;10.880;2023-06-10T02:30:33;98459;;;13.91;71.78
4326;BME280;58429;49.826;10.880;2023-06-10T02:31:33;98456;;;13.91;71.82
4326;BME280;58429;49.826;10.880;2023-06-10T02:32:33;98457;;;13.9;71.79
4326;BME280;58429;49.826;10.880;2023-06-10T02:33:33;98458;;;13.91;71.97
4326;BME280;58429;49.826;10.880;2023-06-10T02:34:33;98454;;;13.9;71.94
4326;BME280;58429;49.826;10.880;2023-06-10T02:35:33;98455;;;13.93;71.97
4326;BME280;58429;49.826;10.880;2023-06-10T02:36:34;98455;;;13.92;72.07
4326;BME280;58429;49.826;10.880;2023-06-10T02:37:33;98456;;;13.89;72.31
4326;BME280;58429;49.826;10.880;2023-06-10T02:38:33;98465;;;13.9;72.76
4326;BME280;58429;49.826;10.880;2023-06-10T02:39:34;98460;;;13.84;73.29
4326;BME280;58429;49.826;10.880;2023-06-10T02:40:34;98454;;;13.82;73.18
4326;BME280;58429;49.826;10.880;2023-06-10T02:41:34;98462;;;13.78;73.37
4326;BME280;58429;49.826;10.880;2023-06-10T02:42:33;98460;;;13.75;73.42
4326;BME280;58429;49.826;10.880;2023-06-10T02:43:33;98458;;;13.7;74.1
4326;BME280;58429;49.826;10.880;2023-06-10T02:44:34;98461;;;13.65;74.28
4326;BME280;58429;49.826;10.880;2023-06-10T02:45:33;98468;;;13.58;73.98
4326;BME280;58429;49.826;10.880;2023-06-10T02:46:33;98467;;;13.52;74.14
4326;BME280;58429;49.826;10.880;2023-06-10T02:47:33;98471;;;13.54;73.96
4326;BME280;58429;49.826;10.880;2023-06-10T02:48:40;98463;;;13.54;74.14
4326;BME280;58429;49.826;10.880;2023-06-10T02:49:34;98460;;;13.53;74.03
4326;BME280;58429;49.826;10.880;2023-06-10T02:50:33;98464;;;13.44;74.23
4326;BME280;58429;49.826;10.880;2023-06-10T02:51:33;98466;;;13.42;73.93
4326;BME280;58429;49.826;10.880;2023-06-10T02:52:34;98468;;;13.43;73.83
4326;BME280;58429;49.826;10.880;2023-06-10T02:53:33;98463;;;13.42;73.91
4326;BME280;58429;49.826;10.880;2023-06-10T02:54:33;98472;;;13.44;73.73
4326;BME280;58429;49.826;10.880;2023-06-10T02:55:34;98465;;;13.39;73.91
4326;BME280;58429;49.826;10.880;2023-06-10T02:56:33;98459;;;13.35;74.11
4326;BME280;58429;49.826;10.880;2023-06-10T02:57:34;98463;;;13.32;74.03
4326;BME280;58429;49.826;10.880;2023-06-10T02:58:34;98463;;;13.31;74.27
4326;BME280;58429;49.826;10.880;2023-06-10T02:59:34;98468;;;13.32;74.56
4326;BME280;58429;49.826;10.880;2023-06-10T03:00:34;98465;;;13.28;75.03
4326;BME280;58429;49.826;10.880;2023-06-10T03:01:34;98472;;;13.25;75.09
4326;BME280;58429;49.826;10.880;2023-06-10T03:02:33;98471;;;13.2;75.03
4326;BME280;58429;49.826;10.880;2023-06-10T03:03:34;98475;;;13.14;75.71
4326;BME280;58429;49.826;10.880;2023-06-10T03:04:33;98475;;;13.07;75.96
4326;BME280;58429;49.826;10.880;2023-06-10T03:05:34;98475;;;13.03;76.4
4326;BME280;58429;49.826;10.880;2023-06-10T03:06:34;98477;;;12.94;75.86
4326;BME280;58429;49.826;10.880;2023-06-10T03:07:34;98467;;;12.93;75.83
4326;BME280;58429;49.826;10.880;2023-06-10T03:08:33;98469;;;12.96;75.23
4326;BME280;58429;49.826;10.880;2023-06-10T03:09:34;98468;;;12.96;75.28
4326;BME280;58429;49.826;10.880;2023-06-10T03:10:34;98462;;;13.02;75.25
4326;BME280;58429;49.826;10.880;2023-06-10T03:11:33;98466;;;12.92;75.55
4326;BME280;58429;49.826;10.880;2023-06-10T03:12:33;98466;;;12.93;75.6
4326;BME280;58429;49.826;10.880;2023-06-10T03:13:34;98467;;;12.91;75.49
4326;BME280;58429;49.826;10.880;2023-06-10T03:14:33;98465;;;12.96;75.25
4326;BME280;58429;49.826;10.880;2023-06-10T03:15:33;98464;;;12.98;75.13
4326;BME280;58429;49.826;10.880;2023-06-10T03:16:34;98470;;;13.02;74.98
4326;BME280;58429;49.826;10.880;2023-06-10T03:17:34;98462;;;13.04;74.71
4326;BME280;58429;49.826;10.880;2023-06-10T03:18:34;98461;;;13.03;74.67
4326;BME280;58429;49.826;10.880;2023-06-10T03:19:34;98465;;;13.04;74.57
4326;BME280;58429;49.826;10.880;2023-06-10T03:20:34;98467;;;13.05;74.81
4326;BME280;58429;49.826;10.880;2023-06-10T03:21:34;98461;;;13.07;75.05
4326;BME280;58429;49.826;10.880;2023-06-10T03:22:34;98464;;;13.05;75.06
4326;BME280;58429;49.826;10.880;2023-06-10T03:23:34;98466;;;13.05;74.88
4326;BME280;58429;49.826;10.880;2023-06-10T03:24:34;98473;;;13.1;74.81
4326;BME280;58429;49.826;10.880;2023-06-10T03:25:34;98471;;;13.11;74.38
4326;BME280;58429;49.826;10.880;2023-06-10T03:26:34;98472;;;13.1;74.18
4326;BME280;58429;49.826;10.880;2023-06-10T03:27:34;98465;;;13.1;74.12
4326;BME280;58429;49.826;10.880;2023-06-10T03:28:34;98467;;;13.09;74.05
4326;BME280;58429;49.826;10.880;2023-06-10T03:29:34;98473;;;13.08;73.98
4326;BME280;58429;49.826;10.880;2023-06-10T03:30:34;98471;;;13.1;73.97
4326;BME280;58429;49.826;10.880;2023-06-10T03:31:34;98468;;;13.1;73.83
4326;BME280;58429;49.826;10.880;2023-06-10T03:32:34;98478;;;13.08;73.76
4326;BME280;58429;49.826;10.880;2023-06-10T03:33:34;98468;;;13.07;73.76
4326;BME280;58429;49.826;10.880;2023-06-10T03:34:34;98465;;;13.07;73.75
4326;BME280;58429;49.826;10.880;2023-06-10T03:35:34;98472;;;13.12;73.88
4326;BME280;58429;49.826;10.880;2023-06-10T03:36:34;98480;;;13.14;73.95
4326;BME280;58429;49.826;10.880;2023-06-10T03:37:34;98471;;;13.11;74.03
4326;BME280;58429;49.826;10.880;2023-06-10T03:38:34;98466;;;13.1;73.86
4326;BME280;58429;49.826;10.880;2023-06-10T03:39:34;98476;;;13.12;73.9
4326;BME280;58429;49.826;10.880;2023-06-10T03:40:34;98476;;;13.12;73.96
4326;BME280;58429;49.826;10.880;2023-06-10T03:41:34;98476;;;13.16;73.83
4326;BME280;58429;49.826;10.880;2023-06-10T03:42:34;98467;;;13.12;73.78
4326;BME280;58429;49.826;10.880;2023-06-10T03:43:34;98467;;;13.15;73.92
4326;BME280;58429;49.826;10.880;2023-06-10T03:44:34;98475;;;13.12;73.94
4326;BME280;58429;49.826;10.880;2023-06-10T03:45:34;98466;;;13.13;73.96
4326;BME280;58429;49.826;10.880;2023-06-10T03:46:34;98470;;;13.11;73.93
4326;BME280;58429;49.826;10.880;2023-06-10T03:47:34;98463;;;13.14;73.89
4326;BME280;58429;49.826;10.880;2023-06-10T03:48:34;98475;;;13.14;74
4326;BME280;58429;49.826;10.880;2023-06-10T03:49:34;98467;;;13.1;74.06
4326;BME280;58429;49.826;10.880;2023-06-10T03:50:34;98467;;;13.12;74.08
4326;BME280;58429;49.826;10.880;2023-06-10T03:51:34;98476;;;13.14;74.1
4326;BME280;58429;49.826;10.880;2023-06-10T03:52:34;98470;;;13.12;74.12
4326;BME280;58429;49.826;10.880;2023-06-10T03:53:34;98479;;;13.1;74.24
4326;BME280;58429;49.826;10.880;2023-06-10T03:54:34;98476;;;13.13;74.43
4326;BME280;58429;49.826;10.880;2023-06-10T03:55:34;98467;;;13.15;74.28
4326;BME280;58429;49.826;10.880;2023-06-10T03:56:34;98468;;;13.13;74.3
4326;BME280;58429;49.826;10.880;2023-06-10T03:57:34;98470;;;13.17;74.17
4326;BME280;58429;49.826;10.880;2023-06-10T03:58:34;98462;;;13.17;74.34
4326;BME280;58429;49.826;10.880;2023-06-10T03:59:34;98470;;;13.21;74.38
4326;BME280;58429;49.826;10.880;2023-06-10T04:00:34;98468;;;13.19;74.4
4326;BME280;58429;49.826;10.880;2023-06-10T04:01:34;98474;;;13.25;74.42
4326;BME280;58429;49.826;10.880;2023-06-10T04:02:34;98470;;;13.26;74.36
4326;BME280;58429;49.826;10.880;2023-06-10T04:03:34;98466;;;13.26;74.42
4326;BME280;58429;49.826;10.880;2023-06-10T04:04:34;98465;;;13.26;74.5
4326;BME280;58429;49.826;10.880;2023-06-10T04:05:34;98471;;;13.27;74.45
4326;BME280;58429;49.826;10.880;2023-06-10T04:06:34;98471;;;13.31;74.42
4326;BME280;58429;49.826;10.880;2023-06-10T04:07:34;98473;;;13.32;74.37
4326;BME280;58429;49.826;10.880;2023-06-10T04:08:34;98461;;;13.31;74.52
4326;BME280;58429;49.826;10.880;2023-06-10T04:09:35;98464;;;13.31;74.63
4326;BME280;58429;49.826;10.880;2023-06-10T04:10:34;98464;;;13.32;74.59
4326;BME280;58429;49.826;10.880;2023-06-10T04:11:34;98467;;;13.33;74.7
4326;BME280;58429;49.826;10.880;2023-06-10T04:12:34;98467;;;13.34;74.56
4326;BME280;58429;49.826;10.880;2023-06-10T04:13:34;98468;;;13.34;74.53
4326;BME280;58429;49.826;10.880;2023-06-10T04:14:34;98456;;;13.34;74.52
4326;BME280;58429;49.826;10.880;2023-06-10T04:15:34;98468;;;13.36;74.57
4326;BME280;58429;49.826;10.880;2023-06-10T04:16:34;98459;;;13.34;75.31
4326;BME280;58429;49.826;10.880;2023-06-10T04:17:34;98458;;;13.34;75.17
4326;BME280;58429;49.826;10.880;2023-06-10T04:18:34;98455;;;13.32;75.34
4326;BME280;58429;49.826;10.880;2023-06-10T04:19:34;98468;;;13.3;75.25
4326;BME280;58429;49.826;10.880;2023-06-10T04:20:34;98461;;;13.31;75.17
4326;BME280;58429;49.826;10.880;2023-06-10T04:21:34;98469;;;13.32;75.22
4326;BME280;58429;49.826;10.880;2023-06-10T04:22:34;98469;;;13.32;75.14
4326;BME280;58429;49.826;10.880;2023-06-10T04:23:34;98466;;;13.32;75.08
4326;BME280;58429;49.826;10.880;2023-06-10T04:24:34;98468;;;13.33;75.03
4326;BME280;58429;49.826;10.880;2023-06-10T04:25:34;98467;;;13.35;75.1
4326;BME280;58429;49.826;10.880;2023-06-10T04:26:34;98463;;;13.34;75.27
4326;BME280;58429;49.826;10.880;2023-06-10T04:27:34;98461;;;13.34;75.22
4326;BME280;58429;49.826;10.880;2023-06-10T04:28:34;98464;;;13.34;75.25
4326;BME280;58429;49.826;10.880;2023-06-10T04:29:34;98468;;;13.35;75.27
4326;BME280;58429;49.826;10.880;2023-06-10T04:30:34;98473;;;13.37;75.36
4326;BME280;58429;49.826;10.880;2023-06-10T04:31:34;98463;;;13.36;75.52
4326;BME280;58429;49.826;10.880;2023-06-10T04:32:34;98468;;;13.37;75.57
4326;BME280;58429;49.826;10.880;2023-06-10T04:33:34;98465;;;13.35;75.81
4326;BME280;58429;49.826;10.880;2023-06-10T04:34:34;98465;;;13.37;75.84
4326;BME280;58429;49.826;10.880;2023-06-10T04:35:34;98470;;;13.38;75.83
4326;BME280;58429;49.826;10.880;2023-06-10T04:36:34;98462;;;13.37;76.24
4326;BME280;58429;49.826;10.880;2023-06-10T04:37:34;98471;;;13.35;75.97
4326;BME280;58429;49.826;10.880;2023-06-10T04:38:34;98466;;;13.36;76.14
4326;BME280;58429;49.826;10.880;2023-06-10T04:39:34;98466;;;13.36;76.14
4326;BME280;58429;49.826;10.880;2023-06-10T04:40:34;98462;;;13.35;76.21
4326;BME280;58429;49.826;10.880;2023-06-10T04:41:34;98467;;;13.37;76.36
4326;BME280;58429;49.826;10.880;2023-06-10T04:42:34;98467;;;13.39;76.37
4326;BME280;58429;49.826;10.880;2023-06-10T04:43:34;98473;;;13.44;76.27
4326;BME280;58429;49.826;10.880;2023-06-10T04:44:34;98472;;;13.42;76.52
4326;BME280;58429;49.826;10.880;2023-06-10T04:45:34;98471;;;13.47;76.24
4326;BME280;58429;49.826;10.880;2023-06-10T04:46:34;98472;;;13.49;76.36
4326;BME280;58429;49.826;10.880;2023-06-10T04:47:34;98479;;;13.54;76.43
4326;BME280;58429;49.826;10.880;2023-06-10T04:48:34;98477;;;13.54;76.54
4326;BME280;58429;49.826;10.880;2023-06-10T04:49:34;98481;;;13.59;76.37
4326;BME280;58429;49.826;10.880;2023-06-10T04:50:34;98483;;;13.6;76.39
4326;BME280;58429;49.826;10.880;2023-06-10T04:51:34;98479;;;13.62;76.36
4326;BME280;58429;49.826;10.880;2023-06-10T04:52:34;98485;;;13.62;76.58
4326;BME280;58429;49.826;10.880;2023-06-10T04:53:34;98484;;;13.7;76.31
4326;BME280;58429;49.826;10.880;2023-06-10T04:54:34;98483;;;13.74;76.51
4326;BME280;58429;49.826;10.880;2023-06-10T04:55:34;98489;;;13.78;76.41
4326;BME280;58429;49.826;10.880;2023-06-10T04:56:34;98484;;;13.78;76.55
4326;BME280;58429;49.826;10.880;2023-06-10T04:57:34;98486;;;13.82;76.58
4326;BME280;58429;49.826;10.880;2023-06-10T04:58:34;98488;;;13.82;76.77
4326;BME280;58429;49.826;10.880;2023-06-10T04:59:34;98494;;;13.83;77.02
4326;BME280;58429;49.826;10.880;2023-06-10T05:00:34;98500;;;13.81;76.77
4326;BME280;58429;49.826;10.880;2023-06-10T05:01:34;98494;;;13.85;76.58
4326;BME280;58429;49.826;10.880;2023-06-10T05:02:34;98498;;;13.85;76.69
4326;BME280;58429;49.826;10.880;2023-06-10T05:03:34;98497;;;13.86;76.55
4326;BME280;58429;49.826;10.880;2023-06-10T05:04:34;98500;;;13.9;76.59
4326;BME280;58429;49.826;10.880;2023-06-10T05:05:34;98499;;;13.91;76.38
4326;BME280;58429;49.826;10.880;2023-06-10T05:06:34;98503;;;13.94;76.4
4326;BME280;58429;49.826;10.880;2023-06-10T05:07:34;98509;;;14.01;76.32
4326;BME280;58429;49.826;10.880;2023-06-10T05:08:34;98505;;;14.04;76.37
4326;BME280;58429;49.826;10.880;2023-06-10T05:09:34;98506;;;14.03;76.38
4326;BME280;58429;49.826;10.880;2023-06-10T05:10:34;98513;;;14.08;76.24
4326;BME280;58429;49.826;10.880;2023-06-10T05:11:34;98510;;;14.13;76.28
4326;BME280;58429;49.826;10.880;2023-06-10T05:12:34;98503;;;14.13;76.14
4326;BME280;58429;49.826;10.880;2023-06-10T05:13:34;98500;;;14.2;76.06
4326;BME280;58429;49.826;10.880;2023-06-10T05:14:34;98499;;;14.16;76.05
4326;BME280;58429;49.826;10.880;2023-06-10T05:15:34;98509;;;14.2;75.99
4326;BME280;58429;49.826;10.880;2023-06-10T05:16:34;98498;;;14.28;75.93
4326;BME280;58429;49.826;10.880;2023-06-10T05:17:34;98504;;;14.3;75.87
4326;BME280;58429;49.826;10.880;2023-06-10T05:18:34;98504;;;14.33;75.67
4326;BME280;58429;49.826;10.880;2023-06-10T05:19:34;98502;;;14.34;75.64
4326;BME280;58429;49.826;10.880;2023-06-10T05:20:34;98506;;;14.39;75.65
4326;BME280;58429;49.826;10.880;2023-06-10T05:21:34;98500;;;14.41;75.53
4326;BME280;58429;49.826;10.880;2023-06-10T05:22:34;98500;;;14.41;75.53
4326;BME280;58429;49.826;10.880;2023-06-10T05:23:34;98508;;;14.49;75.41
4326;BME280;58429;49.826;10.880;2023-06-10T05:24:34;98511;;;14.5;75.31
4326;BME280;58429;49.826;10.880;2023-06-10T05:25:34;98500;;;14.59;75.13
4326;BME280;58429;49.826;10.880;2023-06-10T05:26:35;98504;;;14.7;75.21
4326;BME280;58429;49.826;10.880;2023-06-10T05:27:34;98501;;;14.69;75.14
4326;BME280;58429;49.826;10.880;2023-06-10T05:28:34;98509;;;14.75;75.05
4326;BME280;58429;49.826;10.880;2023-06-10T05:29:34;98506;;;14.76;74.99
4326;BME280;58429;49.826;10.880;2023-06-10T05:30:34;98505;;;14.82;74.94
4326;BME280;58429;49.826;10.880;2023-06-10T05:31:34;98501;;;14.83;74.91